Time;durP1;ratioP1;P1;durP2;ratioP2;P2;SDS_P1;SDS_P2;PMS_P1;PMS_P2;Temp;Humidity;BMP_temperature;BMP_pressure;BME280_temperature;BME280_humidity;BME280_pressure;Samples;Min_cycle;Max_cycle;Signal;HPM_P1;HPM_P2
2021/05/06 14:10:14;;;;;;;7.75;1.38;;;19.20;47.00;;;;;;5092849;27;1354560;-80
2021/05/06 14:12:39;;;;;;;5.82;1.35;;;19.10;46.40;;;;;;5117395;28;20027;-81
2021/05/06 14:15:06;;;;;;;5.57;1.38;;;19.20;46.80;;;;;;5118265;28;20032;-79
2021/05/06 14:17:32;;;;;;;6.38;1.33;;;19.50;46.40;;;;;;5082404;28;20030;-80
2021/05/06 14:19:57;;;;;;;5.25;1.23;;;19.60;45.00;;;;;;5093211;28;20028;-80
2021/05/06 14:22:24;;;;;;;6.72;1.98;;;19.90;46.00;;;;;;5085919;28;20020;-80
2021/05/06 14:24:49;;;;;;;7.43;1.63;;;19.90;46.30;;;;;;5107888;28;20046;-81
2021/05/06 14:27:15;;;;;;;7.38;1.83;;;20.10;46.00;;;;;;5094865;28;20017;-79
2021/05/06 14:29:41;;;;;;;9.95;1.88;;;20.30;45.80;;;;;;5102039;28;20036;-79
2021/05/06 14:32:06;;;;;;;6.25;1.70;;;20.10;45.30;;;;;;5088713;28;20019;-79
2021/05/06 14:34:32;;;;;;;11.43;2.22;;;20.00;45.20;;;;;;5108568;28;20016;-79
2021/05/06 14:36:58;;;;;;;8.23;2.08;;;19.80;45.60;;;;;;5100684;28;20032;-79
2021/05/06 14:39:24;;;;;;;7.18;1.83;;;19.70;46.00;;;;;;5106410;28;20028;-79
2021/05/06 14:41:50;;;;;;;10.07;2.28;;;19.60;44.90;;;;;;5102570;28;20099;-79
2021/05/06 14:44:15;;;;;;;7.25;2.30;;;19.40;46.10;;;;;;5099054;28;20024;-79
2021/05/06 14:46:41;;;;;;;9.57;1.70;;;19.20;45.70;;;;;;5098984;28;20077;-80
2021/05/06 14:49:07;;;;;;;15.25;2.22;;;18.90;46.30;;;;;;5102736;28;20380;-81
2021/05/06 14:51:32;;;;;;;10.60;1.80;;;18.80;48.10;;;;;;5082709;28;20063;-79
2021/05/06 14:53:58;;;;;;;8.15;2.10;;;18.80;49.20;;;;;;5087758;28;20028;-79
2021/05/06 14:56:24;;;;;;;9.60;1.95;;;18.70;47.60;;;;;;5073564;28;20021;-79
2021/05/06 14:58:50;;;;;;;8.77;1.92;;;18.70;48.20;;;;;;5090423;28;20032;-79
2021/05/06 15:01:15;;;;;;;15.48;4.60;;;18.70;49.00;;;;;;5090115;28;20083;-79
2021/05/06 15:03:41;;;;;;;8.27;3.53;;;18.70;49.10;;;;;;5098437;28;20122;-79
2021/05/06 15:06:07;;;;;;;4.78;1.90;;;18.80;51.80;;;;;;5092403;28;20115;-80
2021/05/06 15:08:33;;;;;;;7.90;2.22;;;19.00;53.80;;;;;;5107781;28;20052;-80
2021/05/06 15:10:59;;;;;;;5.35;2.13;;;19.00;54.60;;;;;;5090272;28;20019;-80
2021/05/06 15:13:24;;;;;;;5.03;2.15;;;19.00;55.50;;;;;;5090261;28;20025;-79
2021/05/06 15:15:50;;;;;;;9.35;3.13;;;18.90;55.30;;;;;;5072030;28;20019;-80
2021/05/06 15:18:16;;;;;;;7.22;2.95;;;18.90;55.90;;;;;;5093803;28;20096;-79
2021/05/06 15:20:41;;;;;;;7.82;2.40;;;18.90;56.00;;;;;;5100870;28;20051;-79
2021/05/06 15:23:07;;;;;;;9.63;2.35;;;18.90;55.80;;;;;;5078633;28;20472;-80
2021/05/06 15:25:33;;;;;;;9.45;2.53;;;19.00;56.20;;;;;;5069951;28;20073;-79
2021/05/06 15:27:58;;;;;;;8.15;1.95;;;19.00;56.30;;;;;;5089438;28;20036;-80
2021/05/06 15:30:25;;;;;;;6.90;1.98;;;19.10;55.70;;;;;;5086708;28;20474;-79
2021/05/06 15:32:50;;;;;;;9.23;1.75;;;19.00;55.20;;;;;;5086918;28;20070;-80
2021/05/06 15:35:18;;;;;;;5.30;1.48;;;19.00;56.20;;;;;;5087369;28;20483;-79
2021/05/06 15:37:43;;;;;;;7.40;1.90;;;18.90;55.60;;;;;;5068779;28;20052;-79
2021/05/06 15:40:12;;;;;;;6.43;1.38;;;19.00;55.50;;;;;;5086138;28;20063;-79
2021/05/06 15:42:39;;;;;;;7.22;2.25;;;19.10;56.00;;;;;;5085469;28;20039;-79
2021/05/06 15:45:07;;;;;;;6.68;1.75;;;19.20;56.00;;;;;;5076729;28;20028;-78
2021/05/06 15:47:33;;;;;;;7.57;1.90;;;19.10;55.10;;;;;;5071730;28;20169;-79
2021/05/06 15:49:59;;;;;;;6.60;2.00;;;19.10;55.70;;;;;;5069247;28;20103;-79
2021/05/06 15:52:26;;;;;;;6.75;1.83;;;19.00;55.30;;;;;;5074659;28;20115;-79
2021/05/06 15:54:51;;;;;;;10.27;2.97;;;18.80;56.40;;;;;;5083263;28;20013;-79
2021/05/06 15:57:17;;;;;;;6.50;1.98;;;18.60;58.20;;;;;;5085153;28;20087;-79
2021/05/06 15:59:43;;;;;;;9.65;2.00;;;18.50;59.10;;;;;;5084511;28;20035;-80
2021/05/06 16:02:09;;;;;;;9.32;1.98;;;18.40;59.90;;;;;;5083535;28;20024;-80
2021/05/06 16:04:38;;;;;;;9.38;2.20;;;18.40;60.30;;;;;;5081060;28;20035;-82
2021/05/06 16:07:04;;;;;;;12.75;2.83;;;18.40;62.40;;;;;;5066880;28;20028;-84
2021/05/06 16:09:29;;;;;;;7.72;1.92;;;18.30;60.30;;;;;;5085427;28;20040;-80
2021/05/06 16:11:55;;;;;;;9.57;1.80;;;18.20;61.20;;;;;;5088395;28;20024;-80
2021/05/06 16:14:21;;;;;;;7.28;1.88;;;18.20;62.80;;;;;;5058921;28;20027;-81
2021/05/06 16:16:47;;;;;;;7.10;2.20;;;18.20;61.40;;;;;;5084603;28;20119;-80
2021/05/06 16:19:13;;;;;;;9.13;2.53;;;18.20;60.10;;;;;;5068996;28;20055;-80
2021/05/06 16:21:39;;;;;;;11.80;2.28;;;18.10;59.70;;;;;;5078081;28;20664;-80
2021/05/06 16:24:05;;;;;;;15.23;2.30;;;18.00;60.30;;;;;;5050840;28;20076;-79
2021/05/06 16:26:32;;;;;;;13.27;3.22;;;17.90;60.70;;;;;;5035434;28;20032;-77
2021/05/06 16:28:58;;;;;;;14.73;2.30;;;17.80;60.80;;;;;;5027525;28;20032;-77
2021/05/06 16:31:25;;;;;;;10.65;2.90;;;17.70;60.40;;;;;;5047088;28;20033;-77
2021/05/06 16:33:57;;;;;;;9.15;2.33;;;17.70;60.90;;;;;;5045369;28;20068;-78
2021/05/06 16:36:29;;;;;;;8.20;2.38;;;17.70;62.20;;;;;;5053366;28;20040;-78
2021/05/06 16:39:14;;;;;;;9.20;1.90;;;17.60;61.90;;;;;;5051490;28;20032;-79
2021/05/06 16:44:37;;;;;;;6.00;2.00;;;17.40;65.00;;;;;;4990057;28;20037;-78
2021/05/06 16:47:04;;;;;;;8.82;3.35;;;17.00;67.90;;;;;;5037924;28;20725;-78
2021/05/06 16:49:31;;;;;;;9.48;3.40;;;16.40;88.90;;;;;;5037823;28;20024;-78
2021/05/06 16:51:57;;;;;;;5.20;3.05;;;15.90;91.10;;;;;;5029825;28;20029;-77
2021/05/06 16:54:23;;;;;;;7.20;3.28;;;15.60;90.20;;;;;;5030955;28;20131;-78
2021/05/06 16:56:53;;;;;;;9.68;5.45;;;15.60;88.10;;;;;;5045203;28;22552;-78
2021/05/06 16:59:20;;;;;;;8.27;4.07;;;15.60;84.50;;;;;;5035743;28;20033;-78
2021/05/06 17:01:47;;;;;;;5.57;3.33;;;15.70;81.20;;;;;;5039838;28;20033;-78
2021/05/06 17:04:13;;;;;;;6.90;4.40;;;15.80;79.80;;;;;;5043339;28;20037;-78
2021/05/06 17:06:39;;;;;;;7.72;3.70;;;15.90;78.10;;;;;;5047451;28;20044;-78
2021/05/06 17:09:09;;;;;;;9.45;4.15;;;15.90;77.50;;;;;;5046981;28;20045;-79
2021/05/06 17:11:36;;;;;;;7.75;4.80;;;16.00;77.00;;;;;;5043098;28;20029;-78
2021/05/06 17:14:03;;;;;;;5.65;3.65;;;15.90;77.40;;;;;;5040730;28;20036;-78
2021/05/06 17:16:30;;;;;;;10.32;6.40;;;15.80;77.10;;;;;;5043502;28;20167;-78
2021/05/06 17:18:55;;;;;;;5.03;2.88;;;15.80;76.90;;;;;;5038290;28;20144;-80
2021/05/06 17:21:21;;;;;;;9.80;3.33;;;15.80;75.50;;;;;;5047212;28;20037;-78
2021/05/06 17:23:48;;;;;;;7.15;5.43;;;15.70;75.50;;;;;;5048988;28;20104;-81
2021/05/06 17:26:14;;;;;;;6.65;2.90;;;15.70;75.10;;;;;;5048205;28;20033;-79
2021/05/06 17:28:41;;;;;;;5.90;2.72;;;15.70;76.00;;;;;;5030780;28;20035;-79
2021/05/06 17:31:06;;;;;;;4.38;2.58;;;15.70;75.50;;;;;;5048928;28;20475;-78
2021/05/06 17:33:32;;;;;;;5.28;2.05;;;15.70;74.90;;;;;;5025469;28;20155;-78
2021/05/06 17:35:58;;;;;;;2.08;1.55;;;15.60;74.10;;;;;;5048503;28;20029;-78
2021/05/06 17:38:23;;;;;;;3.47;2.13;;;15.50;75.10;;;;;;5047123;28;20124;-81
2021/05/06 17:40:49;;;;;;;2.67;1.92;;;15.40;73.90;;;;;;5032582;28;20037;-79
2021/05/06 17:43:15;;;;;;;6.05;2.55;;;15.40;74.70;;;;;;5046534;28;20079;-83
2021/05/06 17:45:41;;;;;;;7.25;5.28;;;15.40;74.00;;;;;;5054996;28;20025;-80
2021/05/06 17:48:07;;;;;;;9.82;8.32;;;15.40;73.80;;;;;;5054518;28;20036;-80
2021/05/06 17:50:34;;;;;;;3.30;2.60;;;15.40;74.30;;;;;;5053931;28;20024;-80
2021/05/06 17:53:00;;;;;;;7.65;6.28;;;15.50;73.60;;;;;;5037013;28;20025;-78
2021/05/06 17:55:26;;;;;;;4.00;1.98;;;15.30;73.30;;;;;;5033595;28;20036;-78
2021/05/06 17:57:52;;;;;;;3.45;2.78;;;15.30;74.50;;;;;;5032624;28;20479;-79
2021/05/06 18:00:19;;;;;;;4.30;2.88;;;15.20;74.80;;;;;;5033790;28;20033;-80
2021/05/06 18:02:44;;;;;;;14.85;12.35;;;15.10;74.00;;;;;;5044823;28;20035;-79
2021/05/06 18:05:13;;;;;;;14.23;11.00;;;15.00;73.40;;;;;;5036821;28;20033;-80
2021/05/06 18:07:39;;;;;;;16.23;12.45;;;15.00;73.70;;;;;;5054679;28;20495;-80
2021/05/06 18:10:50;;;;;;;14.80;10.32;;;15.00;73.40;;;;;;5023131;28;20063;-77
2021/05/06 18:12:56;;;;;;;9.05;6.78;;;14.90;73.90;;;;;;5039290;28;20120;-85
2021/05/06 18:15:21;;;;;;;17.33;12.70;;;14.80;73.70;;;;;;5029251;28;20435;-78
2021/05/06 18:17:47;;;;;;;24.65;16.65;;;14.80;74.00;;;;;;5046869;28;20075;-77
2021/05/06 18:20:14;;;;;;;5.20;4.38;;;14.90;74.20;;;;;;5045948;28;20037;-77
2021/05/06 18:22:44;;;;;;;4.82;2.90;;;14.80;74.20;;;;;;5028865;28;20106;-76
2021/05/06 18:25:12;;;;;;;5.50;3.58;;;14.80;75.00;;;;;;5046948;28;20045;-78
2021/05/06 18:27:37;;;;;;;12.23;7.93;;;14.70;74.90;;;;;;5027934;28;20040;-77
2021/05/06 18:30:11;;;;;;;5.80;4.30;;;14.70;75.30;;;;;;5046209;28;20606;-79
2021/05/06 18:32:38;;;;;;;5.18;3.80;;;14.60;75.30;;;;;;5049631;28;20020;-77
2021/05/06 18:35:05;;;;;;;7.20;4.60;;;14.60;75.20;;;;;;5047076;28;20124;-77
2021/05/06 18:37:32;;;;;;;5.25;3.45;;;14.70;75.10;;;;;;5049560;28;20067;-78
2021/05/06 18:39:58;;;;;;;8.98;6.40;;;14.70;75.50;;;;;;5048750;28;20033;-80
2021/05/06 18:42:24;;;;;;;10.20;6.70;;;14.60;75.30;;;;;;5051316;28;20036;-78
2021/05/06 18:44:50;;;;;;;13.88;9.63;;;14.50;75.10;;;;;;5049568;28;20029;-80
2021/05/06 18:47:20;;;;;;;19.27;12.27;;;14.50;75.80;;;;;;5034941;28;20515;-79
2021/05/06 18:49:46;;;;;;;41.67;20.05;;;14.40;75.00;;;;;;5033043;28;20033;-79
2021/05/06 18:52:12;;;;;;;9.98;5.97;;;14.50;75.20;;;;;;5031720;28;20037;-80
2021/05/06 18:54:37;;;;;;;7.82;5.45;;;14.40;75.40;;;;;;5049593;28;20075;-80
2021/05/06 18:57:05;;;;;;;3.38;2.58;;;14.40;75.40;;;;;;5054942;28;20029;-80
2021/05/06 18:59:30;;;;;;;3.72;2.67;;;14.40;75.30;;;;;;5038287;28;20029;-80
2021/05/06 19:01:56;;;;;;;5.85;5.35;;;14.30;75.20;;;;;;5052963;28;20032;-78
2021/05/06 19:04:22;;;;;;;5.97;5.47;;;14.30;74.90;;;;;;5053281;28;20044;-80
2021/05/06 19:06:48;;;;;;;3.92;3.38;;;14.20;74.90;;;;;;5053706;28;20466;-78
2021/05/06 19:09:13;;;;;;;9.32;7.90;;;14.30;75.00;;;;;;5037441;28;20049;-78
2021/05/06 19:11:40;;;;;;;8.38;7.13;;;14.20;74.90;;;;;;5054790;28;20044;-78
2021/05/06 19:14:08;;;;;;;7.53;6.00;;;14.20;74.80;;;;;;5036330;28;20141;-79
2021/05/06 19:16:34;;;;;;;7.55;6.95;;;14.10;74.10;;;;;;5052977;28;20029;-78
2021/05/06 19:18:59;;;;;;;6.63;6.03;;;14.10;74.80;;;;;;5053554;28;20060;-78
2021/05/06 19:21:25;;;;;;;4.93;4.43;;;14.00;74.70;;;;;;5037412;28;20553;-78
2021/05/06 19:23:51;;;;;;;5.70;5.00;;;14.00;74.90;;;;;;5036495;28;20033;-78
2021/05/06 19:26:18;;;;;;;9.05;6.18;;;14.00;74.60;;;;;;5052377;28;20087;-78
2021/05/06 19:28:46;;;;;;;4.75;4.25;;;14.00;74.80;;;;;;5052406;28;20021;-79
2021/05/06 19:31:13;;;;;;;10.55;9.02;;;14.00;74.80;;;;;;5032673;28;20020;-78
2021/05/06 19:33:40;;;;;;;5.07;4.05;;;13.90;74.50;;;;;;5037175;28;20511;-80
2021/05/06 19:36:07;;;;;;;7.95;7.10;;;14.00;74.30;;;;;;5038990;28;20029;-80
2021/05/06 19:38:36;;;;;;;8.38;7.47;;;14.00;74.50;;;;;;5033695;28;20033;-78
2021/05/06 19:41:04;;;;;;;8.63;7.82;;;13.90;74.40;;;;;;5052873;28;20480;-79
2021/05/06 19:43:33;;;;;;;8.13;6.00;;;13.90;74.60;;;;;;5051090;28;20044;-79
2021/05/06 19:46:19;;;;;;;10.55;6.10;;;13.90;74.80;;;;;;5052806;28;20024;-80
2021/05/06 19:48:45;;;;;;;9.68;8.68;;;13.80;75.10;;;;;;5053261;28;20017;-80
2021/05/06 19:51:15;;;;;;;7.15;4.55;;;13.80;75.10;;;;;;5053135;28;20606;-79
2021/05/06 19:53:41;;;;;;;6.38;4.68;;;13.80;75.10;;;;;;5051101;28;20025;-79
2021/05/06 19:56:07;;;;;;;4.55;3.33;;;13.70;75.20;;;;;;5052928;28;20036;-80
2021/05/06 19:58:33;;;;;;;4.28;3.60;;;13.80;75.50;;;;;;5052964;28;20025;-79
2021/05/06 20:01:00;;;;;;;7.20;4.00;;;13.70;75.30;;;;;;5037653;28;20487;-85
2021/05/06 20:03:26;;;;;;;4.80;3.00;;;13.70;75.60;;;;;;5037588;28;20076;-85
2021/05/06 20:05:51;;;;;;;3.88;3.30;;;13.60;75.50;;;;;;5058897;28;20131;-85
2021/05/06 20:08:18;;;;;;;4.47;3.47;;;13.60;75.80;;;;;;5052565;28;20063;-85
2021/05/06 20:10:46;;;;;;;6.30;3.75;;;13.50;75.80;;;;;;5053049;28;20032;-84
2021/05/06 20:13:12;;;;;;;8.00;5.30;;;13.50;75.70;;;;;;5037694;28;20017;-85
2021/05/06 20:15:38;;;;;;;5.05;3.85;;;13.50;75.90;;;;;;5054798;28;20475;-85
2021/05/06 20:18:04;;;;;;;6.13;3.30;;;13.50;76.30;;;;;;5057700;28;20025;-88
2021/05/06 20:20:36;;;;;;;4.82;3.72;;;13.50;75.90;;;;;;5052217;28;20029;-86
2021/05/06 20:23:02;;;;;;;4.20;3.00;;;13.40;75.90;;;;;;5033892;28;20021;-84
2021/05/06 20:25:30;;;;;;;5.15;3.22;;;13.40;75.90;;;;;;5052268;28;20024;-84
2021/05/06 20:27:56;;;;;;;4.25;2.90;;;13.40;75.90;;;;;;5054765;28;20021;-85
2021/05/06 20:30:22;;;;;;;6.10;4.05;;;13.40;76.30;;;;;;5054181;28;20422;-86
2021/05/06 20:32:48;;;;;;;4.65;3.13;;;13.40;76.00;;;;;;5053345;28;20028;-85
2021/05/06 20:35:15;;;;;;;4.50;3.08;;;13.50;76.20;;;;;;5038977;28;20096;-84
2021/05/06 20:37:41;;;;;;;6.25;3.35;;;13.50;76.20;;;;;;5053235;28;20470;-82
2021/05/06 20:40:11;;;;;;;3.88;2.75;;;13.40;77.00;;;;;;5049550;28;20029;-82
2021/05/06 20:45:17;;;;;;;6.68;3.53;;;13.40;76.60;;;;;;5048814;28;20049;-81
2021/05/06 20:47:43;;;;;;;5.72;3.42;;;13.40;76.40;;;;;;5031784;28;20025;-83
2021/05/06 20:50:09;;;;;;;5.68;3.30;;;13.30;76.20;;;;;;5053658;28;20033;-81
2021/05/06 20:52:35;;;;;;;5.43;2.88;;;13.40;76.90;;;;;;5029406;28;20076;-81
2021/05/06 20:55:01;;;;;;;7.03;3.83;;;13.30;76.80;;;;;;5036586;28;20514;-81
2021/05/06 20:57:26;;;;;;;4.95;3.40;;;13.30;77.00;;;;;;5036656;28;20018;-81
2021/05/06 20:59:55;;;;;;;4.93;3.42;;;13.30;76.90;;;;;;5036556;28;20112;-80
2021/05/06 21:02:23;;;;;;;6.55;3.65;;;13.30;76.50;;;;;;5051438;28;20020;-80
2021/05/06 21:04:49;;;;;;;4.88;3.50;;;13.30;76.80;;;;;;5029177;28;20033;-81
2021/05/06 21:07:15;;;;;;;5.25;3.30;;;13.30;77.10;;;;;;5033920;28;20068;-80
2021/05/06 21:09:41;;;;;;;5.13;3.45;;;13.20;76.60;;;;;;5029893;28;20046;-81
2021/05/06 21:12:11;;;;;;;3.42;2.67;;;13.10;77.20;;;;;;5035096;28;20499;-81
2021/05/06 21:14:39;;;;;;;6.45;3.58;;;13.10;77.10;;;;;;5053710;28;20029;-81
2021/05/06 21:17:06;;;;;;;4.90;3.08;;;13.10;76.80;;;;;;5052279;28;20041;-80
2021/05/06 21:19:34;;;;;;;4.85;2.63;;;13.10;76.80;;;;;;5046409;28;20016;-81
2021/05/06 21:22:00;;;;;;;3.60;2.70;;;13.00;76.50;;;;;;5028797;28;20029;-81
2021/05/06 21:24:26;;;;;;;3.78;2.95;;;13.00;76.80;;;;;;5046424;28;20029;-81
2021/05/06 21:26:52;;;;;;;3.53;2.70;;;12.90;76.30;;;;;;5050668;28;20399;-81
2021/05/06 21:29:20;;;;;;;7.93;4.60;;;12.80;76.60;;;;;;5049207;28;20067;-80
2021/05/06 21:31:48;;;;;;;7.75;5.28;;;12.80;77.00;;;;;;5032607;28;20493;-80
2021/05/06 21:34:14;;;;;;;8.75;5.53;;;12.70;77.00;;;;;;5046556;28;20393;-80
2021/05/06 21:36:40;;;;;;;6.70;3.63;;;12.60;77.00;;;;;;5039695;28;20104;-80
2021/05/06 21:39:07;;;;;;;5.93;4.57;;;12.60;76.40;;;;;;5023606;28;20033;-80
2021/05/06 21:41:33;;;;;;;5.38;3.92;;;12.50;76.70;;;;;;5054333;28;20025;-80
2021/05/06 21:43:59;;;;;;;4.47;3.30;;;12.50;77.10;;;;;;5037575;28;20032;-80
2021/05/06 21:46:28;;;;;;;6.93;4.07;;;12.40;76.80;;;;;;5037660;28;20039;-80
2021/05/06 21:48:55;;;;;;;3.95;3.50;;;12.40;76.90;;;;;;5056198;28;20025;-80
2021/05/06 21:51:22;;;;;;;5.85;3.95;;;12.30;77.10;;;;;;5021023;28;20021;-80
2021/05/06 21:53:49;;;;;;;5.40;3.58;;;12.30;77.10;;;;;;5018955;28;20021;-80
2021/05/06 21:56:15;;;;;;;5.88;3.63;;;12.30;76.90;;;;;;5017497;28;20025;-81
2021/05/06 21:58:41;;;;;;;7.43;4.18;;;12.30;76.60;;;;;;5045320;28;20118;-80
2021/05/06 22:01:07;;;;;;;7.50;4.57;;;12.20;76.80;;;;;;5056125;28;20025;-80
2021/05/06 22:03:33;;;;;;;6.55;3.60;;;12.20;76.90;;;;;;5054770;28;20033;-80
2021/05/06 22:05:59;;;;;;;5.35;3.58;;;12.20;76.60;;;;;;5055886;28;20080;-80
2021/05/06 22:08:25;;;;;;;6.85;4.22;;;12.10;76.40;;;;;;5055072;28;20083;-79
2021/05/06 22:10:51;;;;;;;6.18;3.63;;;12.10;76.70;;;;;;5037847;28;20043;-80
2021/05/06 22:13:17;;;;;;;6.78;3.42;;;12.00;76.40;;;;;;5054681;28;20438;-80
2021/05/06 22:15:45;;;;;;;4.80;3.47;;;12.00;76.70;;;;;;5055367;28;20022;-80
2021/05/06 22:18:17;;;;;;;5.55;3.30;;;12.00;76.80;;;;;;5020877;28;20025;-80
2021/05/06 22:20:55;;;;;;;4.53;2.80;;;11.90;76.60;;;;;;5017919;28;20030;-80
2021/05/06 22:23:24;;;;;;;4.38;2.85;;;11.90;76.40;;;;;;5056317;28;20037;-80
2021/05/06 22:25:50;;;;;;;4.18;3.35;;;11.90;76.20;;;;;;5054793;28;20032;-80
2021/05/06 22:28:15;;;;;;;3.50;2.90;;;11.90;76.60;;;;;;5055506;28;20021;-80
2021/05/06 22:30:41;;;;;;;3.33;2.55;;;11.80;76.40;;;;;;5056469;28;20039;-80
2021/05/06 22:33:07;;;;;;;6.03;3.10;;;11.80;76.30;;;;;;5059345;28;20028;-79
2021/05/06 22:35:33;;;;;;;5.80;2.95;;;11.80;76.40;;;;;;5059411;28;20024;-79
2021/05/06 22:37:58;;;;;;;3.58;2.75;;;11.70;76.40;;;;;;5041058;28;20074;-79
2021/05/06 22:40:24;;;;;;;8.98;4.70;;;11.70;76.50;;;;;;5041785;28;20039;-79
2021/05/06 22:42:50;;;;;;;13.13;7.57;;;11.70;76.50;;;;;;5058095;28;20029;-79
2021/05/06 22:45:16;;;;;;;7.30;4.57;;;11.60;76.70;;;;;;5060395;28;20045;-79
2021/05/06 22:47:44;;;;;;;8.05;4.57;;;11.60;76.60;;;;;;5041117;28;20044;-79
2021/05/06 22:50:11;;;;;;;5.70;3.50;;;11.60;76.60;;;;;;5058921;28;20029;-78
2021/05/06 22:52:37;;;;;;;7.80;2.88;;;11.60;76.50;;;;;;5058633;28;20025;-79
2021/05/06 22:55:04;;;;;;;4.80;3.55;;;11.50;76.40;;;;;;5040629;28;20031;-79
2021/05/06 22:57:29;;;;;;;6.20;3.25;;;11.50;76.40;;;;;;5040053;28;20013;-79
2021/05/06 22:59:56;;;;;;;10.15;5.85;;;11.50;76.50;;;;;;5040572;28;20040;-79
2021/05/06 23:02:21;;;;;;;18.83;9.95;;;11.40;76.60;;;;;;5058662;28;20834;-79
2021/05/06 23:04:47;;;;;;;68.95;33.65;;;11.40;76.60;;;;;;5058514;28;20487;-79
2021/05/06 23:07:15;;;;;;;28.27;14.43;;;11.40;76.60;;;;;;5027089;28;20030;-79
2021/05/06 23:09:40;;;;;;;10.63;6.63;;;11.30;76.80;;;;;;5038836;28;20057;-79
2021/05/06 23:12:06;;;;;;;6.60;4.65;;;11.30;76.90;;;;;;5020700;28;20036;-79
2021/05/06 23:14:32;;;;;;;7.15;3.88;;;11.30;76.70;;;;;;5030944;28;20032;-79
2021/05/06 23:16:57;;;;;;;6.82;3.28;;;11.30;76.80;;;;;;5058410;28;20108;-79
2021/05/06 23:19:23;;;;;;;8.38;3.83;;;11.20;76.80;;;;;;5040550;28;20029;-79
2021/05/06 23:21:49;;;;;;;5.75;3.80;;;11.20;76.80;;;;;;5057393;28;20040;-79
2021/05/06 23:24:19;;;;;;;5.50;3.35;;;11.30;76.80;;;;;;5058530;28;20032;-79
2021/05/06 23:26:45;;;;;;;8.15;3.50;;;11.20;76.80;;;;;;5056522;28;20033;-79
2021/05/06 23:29:11;;;;;;;6.05;4.35;;;11.20;76.70;;;;;;5061476;28;20044;-79
2021/05/06 23:31:37;;;;;;;7.03;4.90;;;11.10;76.70;;;;;;5049275;28;20025;-79
2021/05/06 23:34:03;;;;;;;8.18;4.95;;;11.10;76.80;;;;;;5057487;28;20078;-79
2021/05/06 23:36:32;;;;;;;6.72;4.13;;;11.10;76.80;;;;;;5059228;28;20083;-79
2021/05/06 23:39:03;;;;;;;8.75;4.88;;;11.10;76.70;;;;;;5058015;28;20036;-79
2021/05/06 23:41:28;;;;;;;8.13;4.93;;;10.90;77.00;;;;;;5035905;28;20033;-79
2021/05/06 23:43:54;;;;;;;8.35;4.80;;;10.90;77.20;;;;;;5023752;28;20613;-78
2021/05/06 23:46:21;;;;;;;7.70;4.65;;;10.80;77.10;;;;;;5039860;28;20025;-79
2021/05/06 23:48:47;;;;;;;8.02;4.50;;;10.60;77.80;;;;;;5058348;28;20521;-79
2021/05/06 23:51:13;;;;;;;7.75;5.13;;;10.70;78.00;;;;;;5057811;28;20399;-79
2021/05/06 23:53:39;;;;;;;7.32;4.38;;;10.60;77.60;;;;;;5057540;28;20029;-79
2021/05/06 23:56:05;;;;;;;11.68;5.40;;;10.60;77.60;;;;;;5039788;28;20388;-79
2021/05/06 23:58:33;;;;;;;6.15;4.30;;;10.60;77.50;;;;;;5057242;28;20043;-78
